sensor_id;sensor_type;location;lat;lon;timestamp;pressure;altitude;pressure_sealevel;temperature;humidity
44872;BME280;30602;51.060;17.226;2023-05-09T00:00:07;102702.13;;;3.10;90.31
44872;BME280;30602;51.060;17.226;2023-05-09T00:04:14;102689.94;;;3.00;90.52
44872;BME280;30602;51.060;17.226;2023-05-09T00:08:14;102701.19;;;3.00;90.86
44872;BME280;30602;51.060;17.226;2023-05-09T00:11:37;102702.55;;;2.99;90.79
44872;BME280;30602;51.060;17.226;2023-05-09T00:15:26;102699.48;;;3.03;90.69
44872;BME280;30602;51.060;17.226;2023-05-09T00:19:17;102675.74;;;2.92;91.03
44872;BME280;30602;51.060;17.226;2023-05-09T00:23:29;102694.19;;;3.01;91.22
44872;BME280;30602;51.060;17.226;2023-05-09T00:27:56;102691.15;;;3.01;91.63
44872;BME280;30602;51.060;17.226;2023-05-09T00:31:59;102693.06;;;3.11;91.04
44872;BME280;30602;51.060;17.226;2023-05-09T00:35:42;102687.68;;;3.08;91.07
44872;BME280;30602;51.060;17.226;2023-05-09T00:39:03;102686.41;;;3.04;91.10
44872;BME280;30602;51.060;17.226;2023-05-09T00:42:45;102683.24;;;2.99;91.13
44872;BME280;30602;51.060;17.226;2023-05-09T00:46:27;102678.98;;;2.86;91.73
44872;BME280;30602;51.060;17.226;2023-05-09T00:50:18;102673.03;;;2.73;91.66
44872;BME280;30602;51.060;17.226;2023-05-09T00:54:01;102666.50;;;2.59;92.01
44872;BME280;30602;51.060;17.226;2023-05-09T00:57:40;102667.21;;;2.57;92.25
44872;BME280;30602;51.060;17.226;2023-05-09T01:01:18;102667.88;;;2.62;92.69
44872;BME280;30602;51.060;17.226;2023-05-09T01:05:12;102662.56;;;2.63;92.83
44872;BME280;30602;51.060;17.226;2023-05-09T01:09:03;102666.37;;;2.63;92.75
44872;BME280;30602;51.060;17.226;2023-05-09T01:12:40;102667.90;;;2.60;92.93
44872;BME280;30602;51.060;17.226;2023-05-09T01:16:12;102666.38;;;2.68;92.69
44872;BME280;30602;51.060;17.226;2023-05-09T01:31:40;102644.83;;;2.59;93.35
44872;BME280;30602;51.060;17.226;2023-05-09T01:35:02;102646.11;;;2.55;93.78
44872;BME280;30602;51.060;17.226;2023-05-09T01:38:24;102643.98;;;2.56;93.95
44872;BME280;30602;51.060;17.226;2023-05-09T01:41:47;102635.63;;;2.56;93.68
44872;BME280;30602;51.060;17.226;2023-05-09T01:45:11;102637.33;;;2.60;93.54
44872;BME280;30602;51.060;17.226;2023-05-09T01:53:17;102637.28;;;2.50;93.60
44872;BME280;30602;51.060;17.226;2023-05-09T01:57:00;102632.60;;;2.47;93.19
44872;BME280;30602;51.060;17.226;2023-05-09T02:00:25;102634.59;;;2.47;93.53
44872;BME280;30602;51.060;17.226;2023-05-09T02:04:06;102631.10;;;2.43;93.86
44872;BME280;30602;51.060;17.226;2023-05-09T02:07:31;102629.84;;;2.30;93.95
44872;BME280;30602;51.060;17.226;2023-05-09T02:11:18;102633.05;;;2.31;94.58
44872;BME280;30602;51.060;17.226;2023-05-09T02:14:50;102632.77;;;2.39;94.55
44872;BME280;30602;51.060;17.226;2023-05-09T02:18:28;102637.83;;;2.39;94.55
44872;BME280;30602;51.060;17.226;2023-05-09T02:22:59;102628.64;;;2.34;95.04
44872;BME280;30602;51.060;17.226;2023-05-09T02:26:39;102634.77;;;2.36;94.58
44872;BME280;30602;51.060;17.226;2023-05-09T02:31:05;102633.47;;;2.29;94.71
44872;BME280;30602;51.060;17.226;2023-05-09T02:34:41;102631.38;;;2.29;94.71
44872;BME280;30602;51.060;17.226;2023-05-09T02:38:03;102628.17;;;2.25;94.85
44872;BME280;30602;51.060;17.226;2023-05-09T02:41:49;102628.55;;;2.30;95.28
44872;BME280;30602;51.060;17.226;2023-05-09T02:45:34;102627.52;;;2.28;95.42
44872;BME280;30602;51.060;17.226;2023-05-09T02:53:16;102621.20;;;2.26;94.79
44872;BME280;30602;51.060;17.226;2023-05-09T02:56:57;102614.24;;;2.15;95.12
44872;BME280;30602;51.060;17.226;2023-05-09T03:00:51;102612.20;;;2.12;95.27
44872;BME280;30602;51.060;17.226;2023-05-09T03:04:12;102611.79;;;2.16;94.85
44872;BME280;30602;51.060;17.226;2023-05-09T03:07:32;102607.59;;;2.20;94.56
44872;BME280;30602;51.060;17.226;2023-05-09T03:10:53;102607.81;;;2.13;95.19
44872;BME280;30602;51.060;17.226;2023-05-09T03:14:26;102602.69;;;2.20;95.23
44872;BME280;30602;51.060;17.226;2023-05-09T03:18:15;102605.45;;;2.21;95.07
44872;BME280;30602;51.060;17.226;2023-05-09T03:21:51;102607.35;;;2.15;95.06
44872;BME280;30602;51.060;17.226;2023-05-09T03:25:36;102603.05;;;2.24;95.24
44872;BME280;30602;51.060;17.226;2023-05-09T03:29:14;102604.91;;;2.27;95.09
44872;BME280;30602;51.060;17.226;2023-05-09T03:33:07;102604.27;;;2.27;95.50
44872;BME280;30602;51.060;17.226;2023-05-09T03:36:25;102601.08;;;2.36;95.73
44872;BME280;30602;51.060;17.226;2023-05-09T03:40:32;102604.64;;;2.37;96.01
44872;BME280;30602;51.060;17.226;2023-05-09T03:44:12;102601.87;;;2.55;95.81
44872;BME280;30602;51.060;17.226;2023-05-09T03:48:05;102598.37;;;2.65;95.30
44872;BME280;30602;51.060;17.226;2023-05-09T03:51:50;102599.84;;;2.86;95.03
44872;BME280;30602;51.060;17.226;2023-05-09T03:55:10;102594.75;;;2.92;95.47
44872;BME280;30602;51.060;17.226;2023-05-09T03:58:36;102595.24;;;3.15;95.84
44872;BME280;30602;51.060;17.226;2023-05-09T04:02:07;102595.66;;;3.30;96.15
44872;BME280;30602;51.060;17.226;2023-05-09T04:05:28;102600.11;;;3.50;95.86
44872;BME280;30602;51.060;17.226;2023-05-09T04:08:51;102596.24;;;3.84;94.77
44872;BME280;30602;51.060;17.226;2023-05-09T04:12:37;102596.27;;;4.12;93.45
44872;BME280;30602;51.060;17.226;2023-05-09T04:16:24;102599.28;;;4.43;92.43
44872;BME280;30602;51.060;17.226;2023-05-09T04:24:07;102593.95;;;5.08;89.29
44872;BME280;30602;51.060;17.226;2023-05-09T04:27:58;102590.61;;;5.47;87.12
44872;BME280;30602;51.060;17.226;2023-05-09T04:31:24;102586.18;;;5.71;86.41
44872;BME280;30602;51.060;17.226;2023-05-09T04:35:06;102588.26;;;6.03;83.85
44872;BME280;30602;51.060;17.226;2023-05-09T04:38:56;102564.22;;;6.16;82.93
44872;BME280;30602;51.060;17.226;2023-05-09T04:43:08;102577.84;;;6.51;82.71
44872;BME280;30602;51.060;17.226;2023-05-09T04:46:28;102585.39;;;6.58;83.31
44872;BME280;30602;51.060;17.226;2023-05-09T04:49:59;102585.40;;;6.57;83.56
44872;BME280;30602;51.060;17.226;2023-05-09T04:53:39;102586.91;;;6.82;82.16
44872;BME280;30602;51.060;17.226;2023-05-09T04:57:00;102580.62;;;7.19;81.49
44872;BME280;30602;51.060;17.226;2023-05-09T05:04:44;102583.59;;;7.66;80.07
44872;BME280;30602;51.060;17.226;2023-05-09T05:08:40;102582.36;;;7.97;79.50
44872;BME280;30602;51.060;17.226;2023-05-09T05:11:59;102576.91;;;8.11;77.37
44872;BME280;30602;51.060;17.226;2023-05-09T05:15:43;102575.94;;;8.28;77.01
44872;BME280;30602;51.060;17.226;2023-05-09T05:19:25;102574.43;;;8.34;75.33
44872;BME280;30602;51.060;17.226;2023-05-09T05:23:12;102569.46;;;8.45;75.00
44872;BME280;30602;51.060;17.226;2023-05-09T05:26:50;102571.36;;;8.60;74.20
44872;BME280;30602;51.060;17.226;2023-05-09T05:30:31;102569.59;;;8.77;73.52
44872;BME280;30602;51.060;17.226;2023-05-09T05:33:52;102560.01;;;8.81;74.60
44872;BME280;30602;51.060;17.226;2023-05-09T05:37:22;102571.94;;;9.02;73.91
44872;BME280;30602;51.060;17.226;2023-05-09T05:44:41;102564.89;;;9.22;71.26
44872;BME280;30602;51.060;17.226;2023-05-09T05:48:43;102559.85;;;9.38;72.54
44872;BME280;30602;51.060;17.226;2023-05-09T05:52:21;102546.07;;;9.37;72.06
44872;BME280;30602;51.060;17.226;2023-05-09T05:55:42;102551.67;;;9.75;70.88
44872;BME280;30602;51.060;17.226;2023-05-09T05:59:24;102548.77;;;9.88;70.65
44872;BME280;30602;51.060;17.226;2023-05-09T06:03:30;102548.39;;;9.96;68.02
44872;BME280;30602;51.060;17.226;2023-05-09T06:07:12;102543.68;;;10.16;67.02
44872;BME280;30602;51.060;17.226;2023-05-09T06:11:14;102540.22;;;10.32;66.13
44872;BME280;30602;51.060;17.226;2023-05-09T06:18:27;102527.83;;;10.69;64.96
44872;BME280;30602;51.060;17.226;2023-05-09T06:22:09;102524.37;;;10.66;65.14
44872;BME280;30602;51.060;17.226;2023-05-09T06:26:33;102524.35;;;10.76;65.69
44872;BME280;30602;51.060;17.226;2023-05-09T06:29:52;102519.80;;;11.00;64.36
44872;BME280;30602;51.060;17.226;2023-05-09T06:33:16;102515.76;;;11.12;64.70
44872;BME280;30602;51.060;17.226;2023-05-09T06:37:25;102516.23;;;11.21;62.74
44872;BME280;30602;51.060;17.226;2023-05-09T06:41:06;102516.62;;;11.46;62.31
44872;BME280;30602;51.060;17.226;2023-05-09T06:44:45;102512.26;;;11.59;60.84
44872;BME280;30602;51.060;17.226;2023-05-09T06:48:25;102506.01;;;11.66;61.34
44872;BME280;30602;51.060;17.226;2023-05-09T06:51:52;102496.66;;;11.83;61.58
44872;BME280;30602;51.060;17.226;2023-05-09T10:41:19;102258.13;;;15.04;45.77
44872;BME280;30602;51.060;17.226;2023-05-09T10:45:05;102247.52;;;15.32;46.58
44872;BME280;30602;51.060;17.226;2023-05-09T10:48:40;102238.86;;;15.50;45.41
44872;BME280;30602;51.060;17.226;2023-05-09T10:52:13;102234.06;;;15.73;46.06
44872;BME280;30602;51.060;17.226;2023-05-09T11:03:20;102218.95;;;15.96;45.06
44872;BME280;30602;51.060;17.226;2023-05-09T11:06:52;102211.51;;;15.88;44.32
44872;BME280;30602;51.060;17.226;2023-05-09T11:10:56;102207.59;;;15.84;43.64
44872;BME280;30602;51.060;17.226;2023-05-09T11:18:10;102196.68;;;16.18;42.49
44872;BME280;30602;51.060;17.226;2023-05-09T11:26:07;102183.47;;;16.17;41.96
44872;BME280;30602;51.060;17.226;2023-05-09T11:33:28;102167.26;;;16.64;44.25
44872;BME280;30602;51.060;17.226;2023-05-09T11:36:50;102171.31;;;16.43;41.71
44872;BME280;30602;51.060;17.226;2023-05-09T11:40:34;102163.48;;;16.41;41.81
44872;BME280;30602;51.060;17.226;2023-05-09T11:44:20;102147.57;;;16.14;41.37
44872;BME280;30602;51.060;17.226;2023-05-09T11:48:08;102151.27;;;16.58;42.97
44872;BME280;30602;51.060;17.226;2023-05-09T11:52:01;102137.13;;;16.46;40.95
44872;BME280;30602;51.060;17.226;2023-05-09T11:55:37;102121.30;;;16.63;42.09
44872;BME280;30602;51.060;17.226;2023-05-09T11:59:00;102125.95;;;16.77;40.02
44872;BME280;30602;51.060;17.226;2023-05-09T12:03:17;102124.03;;;16.84;39.88
44872;BME280;30602;51.060;17.226;2023-05-09T12:07:01;102107.72;;;16.75;40.11
44872;BME280;30602;51.060;17.226;2023-05-09T12:11:08;102105.97;;;16.99;40.35
44872;BME280;30602;51.060;17.226;2023-05-09T12:14:43;102097.19;;;17.16;38.88
44872;BME280;30602;51.060;17.226;2023-05-09T12:18:17;102096.61;;;17.09;39.52
44872;BME280;30602;51.060;17.226;2023-05-09T12:21:59;102096.34;;;17.08;38.42
44872;BME280;30602;51.060;17.226;2023-05-09T12:25:56;102087.16;;;17.15;37.96
44872;BME280;30602;51.060;17.226;2023-05-09T12:29:29;102096.39;;;17.15;36.36
44872;BME280;30602;51.060;17.226;2023-05-09T12:33:03;102082.45;;;17.24;38.52
44872;BME280;30602;51.060;17.226;2023-05-09T12:38:07;102062.71;;;17.32;38.33
44872;BME280;30602;51.060;17.226;2023-05-09T12:41:43;102063.38;;;17.73;38.44
44872;BME280;30602;51.060;17.226;2023-05-09T12:45:06;102062.09;;;17.73;37.33
44872;BME280;30602;51.060;17.226;2023-05-09T12:48:59;102053.22;;;17.82;37.21
44872;BME280;30602;51.060;17.226;2023-05-09T12:52:38;102044.58;;;17.61;38.26
44872;BME280;30602;51.060;17.226;2023-05-09T13:03:35;102038.18;;;17.66;37.77
44872;BME280;30602;51.060;17.226;2023-05-09T13:07:06;102032.16;;;17.70;37.38
44872;BME280;30602;51.060;17.226;2023-05-09T13:11:10;102020.94;;;18.05;40.95
44872;BME280;30602;51.060;17.226;2023-05-09T13:14:32;102017.32;;;18.14;38.06
44872;BME280;30602;51.060;17.226;2023-05-09T13:18:11;102015.54;;;18.35;37.84
44872;BME280;30602;51.060;17.226;2023-05-09T13:21:53;102011.63;;;18.35;36.78
44872;BME280;30602;51.060;17.226;2023-05-09T13:25:12;102009.08;;;18.34;35.64
44872;BME280;30602;51.060;17.226;2023-05-09T13:28:55;101997.53;;;18.17;35.71
44872;BME280;30602;51.060;17.226;2023-05-09T13:32:36;101994.05;;;18.22;36.79
44872;BME280;30602;51.060;17.226;2023-05-09T13:35:56;101991.06;;;18.11;37.36
44872;BME280;30602;51.060;17.226;2023-05-09T13:39:48;101987.91;;;18.26;36.47
44872;BME280;30602;51.060;17.226;2023-05-09T13:43:34;101991.07;;;18.18;36.52
44872;BME280;30602;51.060;17.226;2023-05-09T13:46:57;101983.20;;;18.24;36.17
44872;BME280;30602;51.060;17.226;2023-05-09T13:50:37;101974.02;;;18.24;38.12
44872;BME280;30602;51.060;17.226;2023-05-09T13:54:52;101971.91;;;18.14;36.16
44872;BME280;30602;51.060;17.226;2023-05-09T13:58:41;101968.55;;;18.27;39.30
44872;BME280;30602;51.060;17.226;2023-05-09T14:02:00;101963.25;;;18.40;36.51
44872;BME280;30602;51.060;17.226;2023-05-09T14:05:37;101956.33;;;18.04;35.74
44872;BME280;30602;51.060;17.226;2023-05-09T14:08:59;101957.07;;;18.14;36.65
44872;BME280;30602;51.060;17.226;2023-05-09T14:12:44;101948.80;;;18.17;37.54
44872;BME280;30602;51.060;17.226;2023-05-09T14:16:20;101945.30;;;18.08;36.93
44872;BME280;30602;51.060;17.226;2023-05-09T14:20:03;101945.34;;;18.03;36.10
44872;BME280;30602;51.060;17.226;2023-05-09T14:23:23;101944.21;;;18.05;36.90
44872;BME280;30602;51.060;17.226;2023-05-09T14:26:45;101932.92;;;18.24;37.88
44872;BME280;30602;51.060;17.226;2023-05-09T14:30:59;101932.36;;;18.17;37.33
44872;BME280;30602;51.060;17.226;2023-05-09T14:34:22;101921.70;;;18.07;35.91
44872;BME280;30602;51.060;17.226;2023-05-09T14:38:28;101923.93;;;17.85;35.38
44872;BME280;30602;51.060;17.226;2023-05-09T14:42:06;101921.29;;;17.82;35.90
44872;BME280;30602;51.060;17.226;2023-05-09T14:45:41;101916.17;;;17.78;37.33
44872;BME280;30602;51.060;17.226;2023-05-09T14:49:18;101913.17;;;17.81;35.73
44872;BME280;30602;51.060;17.226;2023-05-09T14:52:57;101909.19;;;17.81;36.49
44872;BME280;30602;51.060;17.226;2023-05-09T14:56:37;101898.32;;;17.81;35.28
44872;BME280;30602;51.060;17.226;2023-05-09T15:00:19;101900.89;;;17.95;35.89
44872;BME280;30602;51.060;17.226;2023-05-09T15:04:04;101898.09;;;17.81;35.31
44872;BME280;30602;51.060;17.226;2023-05-09T15:07:38;101898.73;;;17.85;35.59
44872;BME280;30602;51.060;17.226;2023-05-09T15:10:56;101894.30;;;17.91;36.84
44872;BME280;30602;51.060;17.226;2023-05-09T15:14:30;101866.59;;;17.76;35.85
44872;BME280;30602;51.060;17.226;2023-05-09T15:18:32;101881.54;;;17.85;35.91
44872;BME280;30602;51.060;17.226;2023-05-09T15:22:37;101879.25;;;17.82;37.12
44872;BME280;30602;51.060;17.226;2023-05-09T15:26:10;101871.04;;;17.79;36.89
44872;BME280;30602;51.060;17.226;2023-05-09T15:29:29;101867.75;;;17.75;35.79
44872;BME280;30602;51.060;17.226;2023-05-09T15:33:12;101874.72;;;17.74;35.77
44872;BME280;30602;51.060;17.226;2023-05-09T15:36:32;101865.65;;;17.63;35.96
44872;BME280;30602;51.060;17.226;2023-05-09T15:40:14;101853.77;;;17.61;35.57
44872;BME280;30602;51.060;17.226;2023-05-09T15:44:17;101863.08;;;17.59;35.60
44872;BME280;30602;51.060;17.226;2023-05-09T15:47:33;101855.28;;;17.57;36.98
44872;BME280;30602;51.060;17.226;2023-05-09T15:51:12;101858.63;;;17.54;36.93
44872;BME280;30602;51.060;17.226;2023-05-09T15:54:54;101855.83;;;17.54;36.74
44872;BME280;30602;51.060;17.226;2023-05-09T15:58:55;101844.22;;;17.55;35.85
44872;BME280;30602;51.060;17.226;2023-05-09T16:02:16;101842.02;;;17.42;35.39
44872;BME280;30602;51.060;17.226;2023-05-09T16:05:52;101842.50;;;17.49;35.28
44872;BME280;30602;51.060;17.226;2023-05-09T16:09:13;101834.96;;;17.46;35.94
44872;BME280;30602;51.060;17.226;2023-05-09T16:12:32;101830.87;;;17.49;36.16
44872;BME280;30602;51.060;17.226;2023-05-09T16:20:51;101820.21;;;17.31;36.92
44872;BME280;30602;51.060;17.226;2023-05-09T16:24:28;101814.27;;;17.26;35.88
44872;BME280;30602;51.060;17.226;2023-05-09T16:28:03;101809.34;;;17.11;35.98
44872;BME280;30602;51.060;17.226;2023-05-09T16:31:45;101807.02;;;17.10;36.20
44872;BME280;30602;51.060;17.226;2023-05-09T16:35:06;101795.69;;;17.10;36.39
44872;BME280;30602;51.060;17.226;2023-05-09T16:38:44;101788.34;;;17.15;36.64
44872;BME280;30602;51.060;17.226;2023-05-09T16:42:44;101787.03;;;17.29;37.33
44872;BME280;30602;51.060;17.226;2023-05-09T16:46:16;101783.46;;;17.33;37.13
44872;BME280;30602;51.060;17.226;2023-05-09T16:49:35;101787.08;;;17.36;37.17
44872;BME280;30602;51.060;17.226;2023-05-09T16:53:26;101782.53;;;17.37;38.32
44872;BME280;30602;51.060;17.226;2023-05-09T16:57:09;101778.97;;;17.33;36.24
44872;BME280;30602;51.060;17.226;2023-05-09T17:00:49;101777.96;;;17.08;37.34
44872;BME280;30602;51.060;17.226;2023-05-09T17:04:56;101769.03;;;17.10;36.98
44872;BME280;30602;51.060;17.226;2023-05-09T17:08:19;101768.38;;;16.93;37.20
44872;BME280;30602;51.060;17.226;2023-05-09T17:11:37;101765.44;;;16.89;37.10
44872;BME280;30602;51.060;17.226;2023-05-09T17:15:20;101760.91;;;16.73;37.30
44872;BME280;30602;51.060;17.226;2023-05-09T17:19:04;101754.79;;;16.66;37.25
44872;BME280;30602;51.060;17.226;2023-05-09T17:23:07;101748.27;;;16.56;38.60
44872;BME280;30602;51.060;17.226;2023-05-09T17:26:50;101749.45;;;16.43;38.33
44872;BME280;30602;51.060;17.226;2023-05-09T17:30:58;101751.23;;;16.22;39.14
44872;BME280;30602;51.060;17.226;2023-05-09T17:34:49;101748.61;;;16.04;41.21
44872;BME280;30602;51.060;17.226;2023-05-09T17:38:40;101750.05;;;15.94;40.57
44872;BME280;30602;51.060;17.226;2023-05-09T17:42:01;101751.05;;;15.76;41.53
44872;BME280;30602;51.060;17.226;2023-05-09T17:49:18;101753.58;;;15.57;41.47
44872;BME280;30602;51.060;17.226;2023-05-09T17:52:40;101751.89;;;15.55;42.28
44872;BME280;30602;51.060;17.226;2023-05-09T17:56:00;101751.14;;;15.53;41.90
44872;BME280;30602;51.060;17.226;2023-05-09T17:59:22;101749.78;;;15.43;42.08
44872;BME280;30602;51.060;17.226;2023-05-09T18:03:03;101749.19;;;15.32;42.02
44872;BME280;30602;51.060;17.226;2023-05-09T18:06:27;101747.35;;;15.16;44.03
44872;BME280;30602;51.060;17.226;2023-05-09T18:10:08;101749.88;;;14.81;46.54
44872;BME280;30602;51.060;17.226;2023-05-09T18:13:28;101747.49;;;14.45;48.66
44872;BME280;30602;51.060;17.226;2023-05-09T18:16:47;101751.43;;;13.96;50.97
44872;BME280;30602;51.060;17.226;2023-05-09T18:20:18;101749.08;;;13.63;51.66
44872;BME280;30602;51.060;17.226;2023-05-09T18:23:40;101755.15;;;13.45;52.64
44872;BME280;30602;51.060;17.226;2023-05-09T18:27:22;101755.91;;;13.28;53.30
44872;BME280;30602;51.060;17.226;2023-05-09T18:30:46;101756.31;;;13.13;53.28
44872;BME280;30602;51.060;17.226;2023-05-09T18:34:07;101756.52;;;13.02;53.62
44872;BME280;30602;51.060;17.226;2023-05-09T18:40:55;101750.96;;;13.37;51.85
44872;BME280;30602;51.060;17.226;2023-05-09T18:44:39;101770.62;;;12.72;54.65
44872;BME280;30602;51.060;17.226;2023-05-09T18:48:03;101773.35;;;12.46;56.29
44872;BME280;30602;51.060;17.226;2023-05-09T18:51:47;101771.55;;;12.20;57.35
44872;BME280;30602;51.060;17.226;2023-05-09T18:55:28;101778.23;;;11.98;58.14
44872;BME280;30602;51.060;17.226;2023-05-09T18:59:41;101782.48;;;12.00;57.46
44872;BME280;30602;51.060;17.226;2023-05-09T19:03:06;101784.41;;;11.97;58.02
44872;BME280;30602;51.060;17.226;2023-05-09T19:06:43;101778.52;;;11.87;58.78
44872;BME280;30602;51.060;17.226;2023-05-09T19:10:21;101779.71;;;11.87;57.82
44872;BME280;30602;51.060;17.226;2023-05-09T19:14:26;101781.27;;;12.01;56.67
44872;BME280;30602;51.060;17.226;2023-05-09T19:17:46;101778.73;;;12.27;54.03
44872;BME280;30602;51.060;17.226;2023-05-09T19:21:26;101779.09;;;12.36;54.12
44872;BME280;30602;51.060;17.226;2023-05-09T19:28:57;101781.27;;;12.44;52.88
44872;BME280;30602;51.060;17.226;2023-05-09T19:32:22;101782.45;;;12.35;53.86
44872;BME280;30602;51.060;17.226;2023-05-09T19:36:18;101760.77;;;12.33;52.69
44872;BME280;30602;51.060;17.226;2023-05-09T19:40:11;101771.98;;;12.54;52.44
44872;BME280;30602;51.060;17.226;2023-05-09T19:43:30;101769.69;;;12.49;52.66
44872;BME280;30602;51.060;17.226;2023-05-09T19:46:53;101768.69;;;12.46;52.60
44872;BME280;30602;51.060;17.226;2023-05-09T19:50:43;101766.79;;;12.26;53.31
44872;BME280;30602;51.060;17.226;2023-05-09T19:54:29;101752.64;;;12.14;53.04
44872;BME280;30602;51.060;17.226;2023-05-09T19:58:07;101764.23;;;12.05;53.79
44872;BME280;30602;51.060;17.226;2023-05-09T20:01:25;101765.55;;;11.94;54.33
44872;BME280;30602;51.060;17.226;2023-05-09T20:04:47;101764.77;;;11.89;54.60
44872;BME280;30602;51.060;17.226;2023-05-09T20:08:29;101759.29;;;11.85;54.57
44872;BME280;30602;51.060;17.226;2023-05-09T20:12:20;101763.23;;;11.68;55.71
44872;BME280;30602;51.060;17.226;2023-05-09T20:16:10;101765.59;;;11.44;57.24
44872;BME280;30602;51.060;17.226;2023-05-09T20:19:55;101766.60;;;11.48;57.01
44872;BME280;30602;51.060;17.226;2023-05-09T20:23:42;101771.37;;;11.42;57.19
44872;BME280;30602;51.060;17.226;2023-05-09T20:27:03;101768.15;;;11.10;59.00
44872;BME280;30602;51.060;17.226;2023-05-09T20:30:46;101762.90;;;10.71;60.76
44872;BME280;30602;51.060;17.226;2023-05-09T20:34:08;101765.63;;;10.49;61.36
44872;BME280;30602;51.060;17.226;2023-05-09T20:37:34;101761.75;;;10.30;62.82
44872;BME280;30602;51.060;17.226;2023-05-09T20:41:20;101756.88;;;10.08;63.29
44872;BME280;30602;51.060;17.226;2023-05-09T20:45:12;101754.50;;;10.04;63.70
44872;BME280;30602;51.060;17.226;2023-05-09T20:48:33;101754.22;;;9.95;63.81
44872;BME280;30602;51.060;17.226;2023-05-09T20:51:51;101752.02;;;9.94;63.40
44872;BME280;30602;51.060;17.226;2023-05-09T20:55:11;101747.29;;;9.76;64.70
44872;BME280;30602;51.060;17.226;2023-05-09T20:58:37;101750.06;;;9.78;64.39
44872;BME280;30602;51.060;17.226;2023-05-09T21:02:19;101748.97;;;9.70;65.11
44872;BME280;30602;51.060;17.226;2023-05-09T21:05:40;101738.06;;;9.55;65.41
44872;BME280;30602;51.060;17.226;2023-05-09T21:09:02;101735.84;;;9.42;66.22
44872;BME280;30602;51.060;17.226;2023-05-09T21:12:22;101738.68;;;9.48;65.24
44872;BME280;30602;51.060;17.226;2023-05-09T21:15:59;101724.47;;;9.54;64.38
44872;BME280;30602;51.060;17.226;2023-05-09T21:19:46;101735.12;;;9.57;64.79
44872;BME280;30602;51.060;17.226;2023-05-09T21:23:27;101728.70;;;9.19;66.41
44872;BME280;30602;51.060;17.226;2023-05-09T21:26:45;101724.66;;;9.06;67.03
44872;BME280;30602;51.060;17.226;2023-05-09T21:30:18;101719.90;;;8.98;67.24
44872;BME280;30602;51.060;17.226;2023-05-09T21:33:37;101722.18;;;8.85;67.66
44872;BME280;30602;51.060;17.226;2023-05-09T21:37:20;101721.98;;;8.74;68.51
44872;BME280;30602;51.060;17.226;2023-05-09T21:40:41;101721.67;;;8.72;68.89
44872;BME280;30602;51.060;17.226;2023-05-09T21:44:24;101717.02;;;8.64;69.05
44872;BME280;30602;51.060;17.226;2023-05-09T21:48:53;101718.70;;;8.57;69.45
44872;BME280;30602;51.060;17.226;2023-05-09T21:52:21;101707.54;;;8.51;69.22
44872;BME280;30602;51.060;17.226;2023-05-09T21:56:24;101718.60;;;8.54;69.33
44872;BME280;30602;51.060;17.226;2023-05-09T22:00:00;101714.93;;;8.49;69.29
44872;BME280;30602;51.060;17.226;2023-05-09T22:03:21;101720.99;;;8.58;68.93
44872;BME280;30602;51.060;17.226;2023-05-09T22:06:40;101715.82;;;8.55;69.05
44872;BME280;30602;51.060;17.226;2023-05-09T22:10:02;101715.33;;;8.24;70.94
44872;BME280;30602;51.060;17.226;2023-05-09T22:13:23;101718.15;;;8.11;71.20
44872;BME280;30602;51.060;17.226;2023-05-09T22:16:47;101714.52;;;8.16;71.10
44872;BME280;30602;51.060;17.226;2023-05-09T22:20:25;101713.59;;;8.01;71.69
44872;BME280;30602;51.060;17.226;2023-05-09T22:24:30;101708.81;;;7.91;72.16
44872;BME280;30602;51.060;17.226;2023-05-09T22:28:16;101701.26;;;7.87;72.30
44872;BME280;30602;51.060;17.226;2023-05-09T22:32:47;101704.93;;;7.82;72.31
44872;BME280;30602;51.060;17.226;2023-05-09T22:36:39;101700.77;;;7.81;72.80
44872;BME280;30602;51.060;17.226;2023-05-09T22:40:35;101696.27;;;7.75;73.90
44872;BME280;30602;51.060;17.226;2023-05-09T22:44:24;101694.91;;;7.67;73.94
44872;BME280;30602;51.060;17.226;2023-05-09T22:48:17;101695.47;;;7.81;73.22
44872;BME280;30602;51.060;17.226;2023-05-09T22:52:17;101670.38;;;7.80;73.35
44872;BME280;30602;51.060;17.226;2023-05-09T22:55:55;101688.15;;;7.90;74.22
44872;BME280;30602;51.060;17.226;2023-05-09T22:59:33;101686.69;;;8.05;72.61
44872;BME280;30602;51.060;17.226;2023-05-09T23:03:54;101683.73;;;8.21;71.12
44872;BME280;30602;51.060;17.226;2023-05-09T23:07:38;101683.17;;;8.15;71.62
44872;BME280;30602;51.060;17.226;2023-05-09T23:10:56;101682.62;;;8.31;70.59
44872;BME280;30602;51.060;17.226;2023-05-09T23:14:28;101674.98;;;8.18;70.86
44872;BME280;30602;51.060;17.226;2023-05-09T23:17:49;101668.54;;;8.05;71.40
44872;BME280;30602;51.060;17.226;2023-05-09T23:21:27;101667.60;;;8.02;71.47
44872;BME280;30602;51.060;17.226;2023-05-09T23:25:19;101657.02;;;7.87;72.36
44872;BME280;30602;51.060;17.226;2023-05-09T23:32:50;101659.62;;;7.69;73.38
44872;BME280;30602;51.060;17.226;2023-05-09T23:36:42;101660.12;;;7.57;73.83
44872;BME280;30602;51.060;17.226;2023-05-09T23:41:11;101660.87;;;7.46;74.15
44872;BME280;30602;51.060;17.226;2023-05-09T23:44:29;101657.82;;;7.33;74.61
44872;BME280;30602;51.060;17.226;2023-05-09T23:48:09;101600.70;;;6.85;74.88
44872;BME280;30602;51.060;17.226;2023-05-09T23:51:32;101657.16;;;7.16;75.51
44872;BME280;30602;51.060;17.226;2023-05-09T23:54:50;101653.34;;;7.11;75.84
44872;BME280;30602;51.060;17.226;2023-05-09T23:58:27;101647.73;;;7.15;75.74
